TimeEST,TemperatureF,Dew PointF,Humidity,Sea Level PressureIn,VisibilityMPH,Wind Direction,Wind SpeedMPH,Gust SpeedMPH,PrecipitationIn,Events,Conditions,WindDirDegrees,DateUTC
12:51 AM,36.0,21.9,57,29.73,10.0,West,11.5,-,N/A,,Clear,280,2013-02-20 05:51:00
1:51 AM,35.1,21.0,57,29.73,10.0,West,15.0,19.6,N/A,,Clear,270,2013-02-20 06:51:00
2:51 AM,34.0,19.9,56,29.74,10.0,West,9.2,19.6,N/A,,Clear,260,2013-02-20 07:51:00
3:51 AM,33.1,19.0,56,29.74,10.0,West,12.7,21.9,N/A,,Clear,270,2013-02-20 08:51:00
4:51 AM,30.9,15.1,52,29.77,10.0,West,18.4,24.2,N/A,,Clear,270,2013-02-20 09:51:00
5:51 AM,30.9,15.1,52,29.79,10.0,West,16.1,24.2,N/A,,Clear,270,2013-02-20 10:51:00
6:51 AM,30.0,16.0,56,29.81,10.0,West,10.4,21.9,N/A,,Clear,280,2013-02-20 11:51:00
7:51 AM,30.0,15.1,54,29.84,10.0,West,18.4,25.3,N/A,,Mostly Cloudy,270,2013-02-20 12:51:00
8:51 AM,30.0,12.0,47,29.85,10.0,West,19.6,29.9,N/A,,Mostly Cloudy,280,2013-02-20 13:51:00
9:51 AM,30.9,10.9,43,29.86,10.0,WNW,17.3,27.6,N/A,,Clear,290,2013-02-20 14:51:00
10:51 AM,30.9,10.9,43,29.85,10.0,West,19.6,26.5,N/A,,Mostly Cloudy,270,2013-02-20 15:51:00
11:51 AM,30.9,12.0,46,29.84,10.0,West,17.3,25.3,N/A,,Overcast,280,2013-02-20 16:51:00
12:51 PM,30.9,10.9,43,29.84,10.0,WNW,16.1,25.3,N/A,,Overcast,290,2013-02-20 17:51:00
1:51 PM,30.9,10.9,43,29.84,10.0,West,16.1,26.5,N/A,,Overcast,270,2013-02-20 18:51:00
2:51 PM,30.9,10.9,43,29.85,10.0,WNW,17.3,25.3,N/A,,Mostly Cloudy,290,2013-02-20 19:51:00
3:51 PM,30.9,10.9,43,29.86,10.0,WNW,16.1,27.6,N/A,,Mostly Cloudy,300,2013-02-20 20:51:00
4:51 PM,30.9,10.0,42,29.88,10.0,West,19.6,29.9,N/A,,Mostly Cloudy,270,2013-02-20 21:51:00
5:51 PM,30.0,10.9,45,29.91,10.0,West,18.4,26.5,N/A,,Overcast,280,2013-02-20 22:51:00
6:51 PM,28.9,12.0,49,29.94,10.0,WNW,17.3,27.6,N/A,,Overcast,290,2013-02-20 23:51:00
7:51 PM,27.0,12.0,53,29.95,10.0,WNW,15.0,26.5,0.00,,Partly Cloudy,300,2013-02-21 00:51:00
8:51 PM,27.0,9.0,47,29.96,10.0,NW,10.4,29.9,N/A,,Partly Cloudy,310,2013-02-21 01:51:00
9:51 PM,26.6,8.6,47,29.96,10.0,WNW,15.0,21.9,N/A,,Clear,300,2013-02-21 02:51:00
11:51 PM,26.1,10.0,51,29.98,10.0,WNW,10.4,23.0,N/A,,Scattered Clouds,300,2013-02-21 04:51:00